Time;durP1;ratioP1;P1;durP2;ratioP2;P2;SDS_P1;SDS_P2;PMS_P1;PMS_P2;Temp;Humidity;BMP_temperature;BMP_pressure;BME280_temperature;BME280_humidity;BME280_pressure;Samples;Min_cycle;Max_cycle;Signal;HPM_P1;HPM_P2
2021/03/15 00:01:00;;;;;;;9.65;8.25;;;29.50;91.30;;;;;;5049780;28;20261;-48
2021/03/15 00:03:31;;;;;;;9.60;8.68;;;29.50;91.20;;;;;;5050001;28;20251;-48
2021/03/15 00:06:02;;;;;;;10.02;8.63;;;29.40;91.20;;;;;;5066431;28;20198;-50
2021/03/15 00:08:33;;;;;;;9.98;8.98;;;29.50;91.20;;;;;;5056836;28;20677;-49
2021/03/15 00:11:04;;;;;;;10.57;9.48;;;29.50;91.20;;;;;;5066122;28;20202;-48
2021/03/15 00:13:35;;;;;;;10.40;9.40;;;29.50;91.30;;;;;;5063727;28;20232;-49
2021/03/15 00:16:07;;;;;;;10.35;9.45;;;29.50;91.30;;;;;;5064252;28;20636;-50
2021/03/15 00:18:37;;;;;;;10.45;9.18;;;29.50;91.40;;;;;;5063679;28;20790;-50
2021/03/15 00:21:08;;;;;;;9.55;8.57;;;29.50;91.30;;;;;;5065862;28;20209;-53
2021/03/15 00:23:39;;;;;;;9.63;8.45;;;29.50;91.40;;;;;;5065388;28;20205;-50
2021/03/15 00:26:09;;;;;;;9.68;8.70;;;29.50;91.40;;;;;;5048844;28;20190;-53
2021/03/15 00:28:40;;;;;;;10.20;9.15;;;29.50;91.50;;;;;;5062282;28;20609;-51
2021/03/15 00:31:11;;;;;;;10.93;8.95;;;29.50;91.50;;;;;;5065401;28;20630;-51
2021/03/15 00:33:42;;;;;;;10.15;9.23;;;29.50;91.60;;;;;;5055429;28;20233;-50
2021/03/15 00:36:20;;;;;;;10.02;9.02;;;29.50;91.60;;;;;;5049374;28;20210;-53
2021/03/15 00:38:51;;;;;;;11.77;8.88;;;29.50;91.70;;;;;;5065194;28;20273;-51
2021/03/15 00:41:21;;;;;;;11.10;9.10;;;29.50;91.70;;;;;;5062385;28;20605;-51
2021/03/15 00:43:52;;;;;;;10.52;9.57;;;29.60;91.80;;;;;;5064876;28;20836;-50
2021/03/15 00:46:24;;;;;;;11.27;8.65;;;29.60;91.80;;;;;;5051466;28;20205;-51
2021/03/15 00:48:54;;;;;;;9.85;8.80;;;29.60;91.90;;;;;;5064685;28;20243;-49
2021/03/15 00:51:25;;;;;;;10.15;9.15;;;29.60;91.90;;;;;;5063294;28;20312;-50
2021/03/15 00:53:55;;;;;;;10.75;8.82;;;29.60;92.00;;;;;;5049445;28;20256;-48
2021/03/15 00:56:27;;;;;;;10.30;9.25;;;29.70;92.10;;;;;;5048917;28;20210;-50
2021/03/15 00:58:58;;;;;;;10.23;9.13;;;29.70;92.10;;;;;;5048642;28;20800;-54
2021/03/15 01:01:40;;;;;;;9.90;9.00;;;29.70;92.10;;;;;;5063283;28;20201;-48
2021/03/15 01:04:11;;;;;;;10.65;9.55;;;29.70;92.20;;;;;;5064841;28;20194;-50
2021/03/15 01:06:43;;;;;;;10.52;9.63;;;29.80;92.20;;;;;;5050712;28;20194;-53
2021/03/15 01:09:13;;;;;;;10.93;9.40;;;29.80;92.20;;;;;;5051666;28;20282;-52
2021/03/15 01:11:45;;;;;;;11.85;10.10;;;29.90;92.20;;;;;;5061521;28;20255;-50
2021/03/15 01:14:15;;;;;;;11.27;9.95;;;29.90;92.20;;;;;;5064252;28;20199;-52
2021/03/15 01:16:47;;;;;;;11.57;9.70;;;30.00;92.20;;;;;;5064227;28;20258;-51
2021/03/15 01:19:18;;;;;;;11.57;10.25;;;30.00;92.10;;;;;;5064139;28;20231;-49
2021/03/15 01:21:48;;;;;;;11.65;10.45;;;30.10;92.10;;;;;;5063578;28;20711;-50
2021/03/15 01:24:19;;;;;;;11.20;9.80;;;30.10;92.10;;;;;;5048321;28;20224;-51
2021/03/15 01:26:49;;;;;;;10.90;9.80;;;30.20;92.20;;;;;;5048804;28;20855;-52
2021/03/15 01:29:19;;;;;;;11.07;9.75;;;30.20;92.10;;;;;;5048999;28;20657;-52
2021/03/15 01:31:52;;;;;;;9.88;8.93;;;30.30;92.10;;;;;;5064398;28;20201;-48
2021/03/15 01:34:22;;;;;;;11.68;10.40;;;30.40;91.90;;;;;;5056587;28;20608;-53
2021/03/15 01:37:05;;;;;;;11.32;9.43;;;30.40;92.00;;;;;;5052290;28;20283;-51
2021/03/15 01:39:36;;;;;;;10.32;9.10;;;30.50;91.80;;;;;;5051889;28;20641;-50
2021/03/15 01:42:07;;;;;;;11.80;9.57;;;30.50;91.80;;;;;;5055568;28;20284;-52
2021/03/15 01:44:38;;;;;;;10.95;9.85;;;30.60;91.70;;;;;;5057330;28;20847;-49
2021/03/15 01:47:15;;;;;;;10.60;9.38;;;30.70;92.10;;;;;;5060249;28;20305;-53
2021/03/15 01:49:46;;;;;;;10.38;9.32;;;30.80;91.70;;;;;;5061331;28;20202;-53
2021/03/15 01:52:17;;;;;;;10.75;9.55;;;30.80;91.60;;;;;;5063599;28;20212;-51
2021/03/15 01:54:48;;;;;;;10.93;9.80;;;30.90;91.40;;;;;;5008722;28;20986;-50
2021/03/15 01:57:18;;;;;;;12.43;9.63;;;30.90;91.30;;;;;;5005966;28;20712;-51
2021/03/15 01:59:50;;;;;;;13.73;9.55;;;31.00;91.30;;;;;;5006186;28;20254;-50
2021/03/15 02:02:21;;;;;;;11.02;9.93;;;31.10;91.20;;;;;;5019694;28;20217;-50
2021/03/15 02:04:52;;;;;;;11.80;9.80;;;31.10;91.00;;;;;;5021509;28;20241;-52
2021/03/15 02:07:29;;;;;;;13.23;9.85;;;31.20;90.90;;;;;;5015879;28;20712;-51
2021/03/15 02:10:00;;;;;;;11.68;10.15;;;31.30;90.70;;;;;;5010017;28;20286;-49
2021/03/15 02:12:41;;;;;;;12.02;9.68;;;31.30;90.40;;;;;;5013632;28;20230;-49
2021/03/15 02:15:16;;;;;;;12.80;10.68;;;31.40;90.10;;;;;;5008387;28;20227;-52
2021/03/15 02:17:52;;;;;;;9.55;8.55;;;31.40;89.60;;;;;;5023952;28;20333;-53
2021/03/15 02:20:51;;;;;;;11.05;9.95;;;31.50;89.80;;;;;;5025016;28;20273;-51
2021/03/15 02:23:24;;;;;;;11.23;9.32;;;31.50;89.20;;;;;;4964171;28;20216;-51
2021/03/15 02:26:16;;;;;;;10.00;9.07;;;31.60;88.80;;;;;;4983569;28;20230;-52
2021/03/15 02:29:29;;;;;;;11.25;9.40;;;31.70;89.00;;;;;;4999237;28;20719;-53
2021/03/15 02:32:22;;;;;;;11.43;9.23;;;31.80;88.50;;;;;;4945968;28;20471;-53
2021/03/15 02:35:09;;;;;;;11.52;9.75;;;31.80;88.20;;;;;;4929727;29;20265;-51
2021/03/15 02:37:54;;;;;;;11.13;9.60;;;31.90;88.40;;;;;;4921357;29;20221;-48
2021/03/15 02:40:28;;;;;;;13.63;9.27;;;32.00;88.40;;;;;;4933930;28;20907;-51
2021/03/15 02:43:01;;;;;;;11.48;9.50;;;32.00;87.80;;;;;;4966584;28;20309;-49
2021/03/15 02:45:32;;;;;;;11.23;9.60;;;32.10;87.80;;;;;;4965507;28;20193;-50
2021/03/15 02:48:04;;;;;;;11.70;10.45;;;32.20;87.60;;;;;;4964529;28;20345;-51
2021/03/15 02:50:37;;;;;;;12.68;10.73;;;32.30;87.00;;;;;;4964930;28;20228;-48
2021/03/15 02:53:11;;;;;;;10.98;9.80;;;32.30;86.20;;;;;;4962114;28;20202;-50
2021/03/15 02:55:41;;;;;;;14.60;11.18;;;32.40;86.60;;;;;;4981963;28;20265;-51
2021/03/15 02:58:13;;;;;;;11.32;9.88;;;32.50;86.20;;;;;;4965666;28;20240;-51
2021/03/15 03:00:44;;;;;;;12.27;9.70;;;32.60;86.10;;;;;;5022897;28;20285;-54
2021/03/15 03:03:15;;;;;;;11.00;9.90;;;32.70;85.70;;;;;;5021757;28;20623;-52
2021/03/15 03:05:47;;;;;;;11.98;10.77;;;32.80;85.80;;;;;;4953053;28;20213;-51
2021/03/15 03:08:19;;;;;;;10.73;9.70;;;32.90;85.30;;;;;;4950872;28;20232;-51
2021/03/15 03:10:50;;;;;;;9.80;8.80;;;32.90;84.90;;;;;;4954043;28;20211;-52
2021/03/15 03:13:20;;;;;;;13.13;11.90;;;33.00;84.50;;;;;;4957212;28;20230;-52
2021/03/15 03:15:50;;;;;;;12.10;10.90;;;33.10;82.80;;;;;;4961197;28;20385;-51
2021/03/15 03:18:21;;;;;;;11.82;10.63;;;33.10;82.80;;;;;;4955823;28;20416;-50
2021/03/15 03:20:55;;;;;;;12.73;11.35;;;33.20;82.40;;;;;;4965486;28;21017;-51
2021/03/15 03:23:27;;;;;;;15.90;13.02;;;33.30;80.90;;;;;;4951483;28;20217;-49
2021/03/15 03:25:58;;;;;;;12.48;11.27;;;33.30;79.00;;;;;;4950385;28;20256;-49
2021/03/15 03:28:29;;;;;;;12.48;11.27;;;33.30;79.70;;;;;;4961896;28;20290;-51
2021/03/15 03:31:01;;;;;;;11.43;10.35;;;33.40;80.00;;;;;;5008704;28;20203;-55
2021/03/15 03:33:32;;;;;;;11.55;10.00;;;33.40;80.70;;;;;;5014453;28;20215;-51
2021/03/15 03:36:03;;;;;;;11.18;10.05;;;33.50;80.70;;;;;;5022504;28;20226;-55
2021/03/15 03:38:41;;;;;;;11.93;10.73;;;33.60;80.20;;;;;;5054393;28;20194;-55
2021/03/15 03:41:12;;;;;;;13.40;12.10;;;33.60;79.40;;;;;;5063878;28;20210;-53
2021/03/15 03:43:46;;;;;;;12.13;10.93;;;33.70;76.60;;;;;;5062823;28;20222;-52
2021/03/15 03:46:17;;;;;;;12.75;11.55;;;33.70;78.10;;;;;;5065496;28;20205;-52
2021/03/15 03:48:47;;;;;;;12.45;11.32;;;33.80;78.30;;;;;;5065704;28;20269;-51
2021/03/15 03:51:19;;;;;;;13.32;11.13;;;33.90;77.80;;;;;;5064859;28;20712;-50
2021/03/15 03:53:51;;;;;;;12.50;11.23;;;34.00;77.60;;;;;;5063777;28;20198;-49
2021/03/15 03:56:25;;;;;;;11.77;10.75;;;34.10;76.70;;;;;;5064132;28;20213;-49
2021/03/15 03:58:56;;;;;;;12.52;11.43;;;34.10;76.10;;;;;;5064215;28;20198;-54
2021/03/15 04:01:31;;;;;;;12.98;11.77;;;34.20;76.00;;;;;;5064406;28;20295;-51
2021/03/15 04:04:02;;;;;;;12.13;11.02;;;34.30;75.60;;;;;;5064815;28;20648;-49
2021/03/15 04:06:36;;;;;;;12.43;11.23;;;34.40;77.20;;;;;;5063548;28;20196;-48
2021/03/15 04:09:12;;;;;;;13.35;12.10;;;34.50;74.60;;;;;;5060325;28;20720;-50
2021/03/15 04:11:50;;;;;;;13.32;12.02;;;34.50;74.90;;;;;;5060182;28;20232;-48
2021/03/15 04:14:23;;;;;;;14.88;13.40;;;34.60;73.80;;;;;;5064827;28;20220;-53
2021/03/15 04:16:54;;;;;;;14.30;12.85;;;34.70;71.10;;;;;;5023677;28;20737;-49
2021/03/15 04:19:26;;;;;;;13.38;12.27;;;34.70;72.80;;;;;;5022749;28;20913;-50
2021/03/15 04:22:00;;;;;;;12.98;11.68;;;34.80;72.30;;;;;;5012049;28;20954;-49
2021/03/15 04:24:33;;;;;;;13.20;12.07;;;34.80;72.30;;;;;;5012042;28;20211;-53
2021/03/15 04:27:04;;;;;;;13.75;12.45;;;34.90;72.00;;;;;;5023638;28;20205;-53
2021/03/15 04:29:34;;;;;;;12.85;11.77;;;35.00;71.20;;;;;;4988503;28;20223;-52
2021/03/15 04:32:06;;;;;;;15.20;13.70;;;35.00;71.50;;;;;;4989139;28;20286;-49
2021/03/15 04:34:36;;;;;;;17.38;15.57;;;35.00;69.00;;;;;;4995521;28;20781;-52
2021/03/15 04:37:08;;;;;;;14.30;12.90;;;35.00;66.60;;;;;;4988100;28;20254;-53
2021/03/15 04:39:38;;;;;;;14.55;13.07;;;35.00;67.60;;;;;;4999887;28;20210;-51
2021/03/15 04:42:10;;;;;;;14.98;13.48;;;35.00;68.20;;;;;;5001773;28;20211;-51
2021/03/15 04:44:40;;;;;;;13.93;12.50;;;35.00;67.20;;;;;;4988759;28;20299;-49
2021/03/15 04:47:10;;;;;;;13.13;11.93;;;35.10;68.70;;;;;;4998650;28;20202;-49
2021/03/15 04:49:40;;;;;;;13.15;11.90;;;35.10;69.20;;;;;;5018056;28;20663;-52
2021/03/15 04:52:14;;;;;;;14.60;13.30;;;35.20;69.20;;;;;;5021866;28;20195;-52
2021/03/15 04:54:45;;;;;;;16.15;14.65;;;35.20;67.60;;;;;;5013264;28;20405;-50
2021/03/15 04:57:17;;;;;;;15.60;14.25;;;35.30;66.40;;;;;;5007449;28;20305;-53
2021/03/15 04:59:47;;;;;;;15.75;14.35;;;35.30;65.50;;;;;;5026257;28;20282;-54
2021/03/15 05:02:21;;;;;;;15.00;13.68;;;35.30;65.50;;;;;;5059415;28;20229;-52
2021/03/15 05:04:52;;;;;;;16.08;14.70;;;35.20;65.70;;;;;;5062647;28;20284;-52
2021/03/15 05:07:24;;;;;;;16.10;14.65;;;35.30;66.80;;;;;;5063488;28;20228;-50
2021/03/15 05:09:55;;;;;;;16.80;15.18;;;35.30;67.90;;;;;;5054844;28;20251;-54
2021/03/15 05:12:26;;;;;;;14.85;13.55;;;35.30;65.20;;;;;;5057781;28;20213;-48
2021/03/15 05:14:58;;;;;;;15.50;14.27;;;35.40;66.60;;;;;;5061379;28;20279;-49
2021/03/15 05:17:29;;;;;;;15.57;14.32;;;35.40;66.60;;;;;;5064170;28;20273;-51
2021/03/15 05:20:00;;;;;;;17.55;15.95;;;35.50;66.50;;;;;;5062877;28;20241;-51
2021/03/15 05:22:34;;;;;;;16.20;14.77;;;35.60;65.80;;;;;;5018333;28;20575;-52
2021/03/15 05:25:05;;;;;;;16.80;15.32;;;35.60;66.00;;;;;;5019962;28;20216;-52
2021/03/15 05:27:35;;;;;;;18.77;17.02;;;35.70;66.00;;;;;;5021801;28;20209;-50
2021/03/15 05:30:11;;;;;;;17.52;16.02;;;35.70;66.10;;;;;;5019076;28;20882;-49
2021/03/15 05:32:43;;;;;;;17.48;15.88;;;35.70;65.70;;;;;;5018479;28;20252;-49
2021/03/15 05:35:14;;;;;;;15.70;14.32;;;35.80;65.70;;;;;;5009811;28;20230;-49
2021/03/15 05:37:47;;;;;;;16.90;15.32;;;35.80;65.40;;;;;;5019515;28;20211;-49
2021/03/15 05:40:19;;;;;;;18.00;16.60;;;35.80;65.80;;;;;;5012532;28;20206;-52
2021/03/15 05:42:59;;;;;;;18.92;16.95;;;35.90;65.60;;;;;;5009880;28;20486;-50
2021/03/15 05:46:12;;;;;;;17.95;16.35;;;35.90;65.00;;;;;;5021399;28;20191;-49
2021/03/15 05:48:57;;;;;;;17.20;15.80;;;36.00;65.50;;;;;;5008310;28;20695;-50
2021/03/15 05:51:51;;;;;;;18.42;16.67;;;36.10;64.60;;;;;;5010187;28;20219;-50
2021/03/15 05:54:45;;;;;;;20.10;18.25;;;36.10;63.20;;;;;;5022345;28;20209;-51
2021/03/15 05:57:30;;;;;;;18.25;16.45;;;36.20;62.50;;;;;;4988933;28;20270;-50
2021/03/15 06:00:07;;;;;;;18.10;16.35;;;36.20;62.60;;;;;;4966027;28;20566;-53
2021/03/15 06:03:03;;;;;;;17.17;15.68;;;36.30;63.40;;;;;;4963877;28;20212;-49
2021/03/15 06:05:34;;;;;;;16.13;14.65;;;36.30;63.70;;;;;;4962440;28;20260;-47
2021/03/15 06:08:06;;;;;;;18.27;16.58;;;36.30;63.40;;;;;;4928879;29;20210;-47
2021/03/15 06:10:58;;;;;;;15.98;14.68;;;36.30;62.10;;;;;;4946866;29;20629;-50
2021/03/15 06:13:29;;;;;;;15.00;13.80;;;36.30;62.80;;;;;;4980578;28;20208;-49
2021/03/15 06:16:00;;;;;;;15.60;14.15;;;36.30;63.60;;;;;;5005361;28;20228;-51
2021/03/15 06:18:30;;;;;;;15.75;14.45;;;36.30;64.30;;;;;;4949186;29;20241;-51
2021/03/15 06:21:01;;;;;;;15.77;14.48;;;36.40;64.70;;;;;;4949047;29;20217;-54
2021/03/15 06:23:31;;;;;;;16.48;15.18;;;36.50;64.50;;;;;;4948073;28;20244;-53
2021/03/15 06:26:03;;;;;;;16.38;14.68;;;36.50;64.30;;;;;;4988019;28;20212;-49
2021/03/15 06:28:33;;;;;;;15.07;13.77;;;36.60;65.10;;;;;;4984538;28;20208;-52
2021/03/15 06:31:03;;;;;;;15.73;14.23;;;36.60;64.30;;;;;;4987659;28;20226;-52
2021/03/15 06:33:34;;;;;;;15.93;14.52;;;36.60;64.20;;;;;;5007447;28;20230;-51
2021/03/15 06:36:06;;;;;;;15.70;14.40;;;36.70;63.30;;;;;;4965567;28;20223;-51
2021/03/15 06:38:36;;;;;;;16.77;15.18;;;36.80;63.90;;;;;;4966025;28;20211;-51
2021/03/15 06:41:08;;;;;;;15.45;13.88;;;36.80;63.00;;;;;;4926452;29;20226;-50
2021/03/15 06:43:38;;;;;;;14.63;13.43;;;36.80;62.80;;;;;;4927145;29;20210;-52
2021/03/15 06:46:09;;;;;;;15.35;13.75;;;36.90;63.00;;;;;;4913340;29;20215;-55
2021/03/15 06:48:40;;;;;;;15.60;13.95;;;36.90;63.60;;;;;;4921452;28;20315;-53
2021/03/15 06:51:10;;;;;;;13.75;12.55;;;37.00;62.00;;;;;;4970388;28;20228;-52
2021/03/15 06:53:40;;;;;;;16.17;14.48;;;37.00;62.80;;;;;;4979283;28;20219;-53
2021/03/15 06:56:16;;;;;;;16.33;14.82;;;37.00;62.30;;;;;;4983428;28;20239;-54
2021/03/15 06:58:50;;;;;;;14.82;13.55;;;37.00;61.90;;;;;;4981466;28;20203;-50
2021/03/15 07:01:20;;;;;;;13.75;12.63;;;37.10;62.80;;;;;;4974518;28;20242;-50
2021/03/15 07:03:52;;;;;;;13.85;12.63;;;37.10;62.40;;;;;;4970537;28;20216;-51
2021/03/15 07:06:23;;;;;;;12.85;11.65;;;37.10;62.60;;;;;;4978532;28;20603;-49
2021/03/15 07:08:56;;;;;;;14.02;12.73;;;37.20;62.30;;;;;;5023243;28;20620;-54
2021/03/15 07:11:29;;;;;;;14.27;11.85;;;37.20;62.70;;;;;;4952983;28;20204;-49
2021/03/15 07:14:00;;;;;;;15.07;13.75;;;37.20;62.60;;;;;;4983845;28;20916;-52
2021/03/15 07:16:31;;;;;;;13.73;12.50;;;37.30;61.00;;;;;;4983813;28;20754;-52
2021/03/15 07:19:02;;;;;;;13.52;12.10;;;37.30;61.70;;;;;;4983602;28;20463;-51
2021/03/15 07:21:37;;;;;;;14.57;13.25;;;37.30;62.10;;;;;;4983449;28;20383;-50
2021/03/15 07:24:11;;;;;;;13.02;11.82;;;37.30;61.00;;;;;;4982673;28;20677;-54
2021/03/15 07:26:44;;;;;;;13.43;12.02;;;37.30;61.20;;;;;;4982041;28;20259;-51
2021/03/15 07:29:15;;;;;;;12.82;11.75;;;37.30;61.70;;;;;;4969924;28;20712;-50
2021/03/15 07:31:45;;;;;;;13.82;12.63;;;37.30;62.10;;;;;;4969612;28;20213;-51
2021/03/15 07:34:20;;;;;;;13.82;12.52;;;37.30;61.40;;;;;;4969969;28;20338;-50
2021/03/15 07:36:52;;;;;;;12.80;11.63;;;37.30;61.60;;;;;;4970070;28;20235;-48
2021/03/15 07:39:23;;;;;;;12.75;11.55;;;37.40;61.90;;;;;;4981795;28;20200;-49
2021/03/15 07:41:55;;;;;;;12.55;11.23;;;37.50;61.30;;;;;;5007079;28;20292;-50
2021/03/15 07:44:27;;;;;;;12.38;11.07;;;37.50;61.10;;;;;;5063376;28;20603;-49
2021/03/15 07:46:58;;;;;;;12.68;11.48;;;37.50;61.60;;;;;;5064381;28;20200;-51
2021/03/15 07:49:32;;;;;;;12.13;10.93;;;37.50;61.10;;;;;;5053453;28;20751;-49
2021/03/15 07:52:04;;;;;;;13.35;12.02;;;37.50;61.10;;;;;;5054157;28;20230;-49
2021/03/15 07:54:37;;;;;;;14.23;11.85;;;37.60;60.30;;;;;;5053701;28;20737;-52
2021/03/15 07:57:20;;;;;;;13.40;11.63;;;37.60;60.00;;;;;;5051206;28;20217;-53
2021/03/15 07:59:51;;;;;;;12.73;11.52;;;37.60;60.30;;;;;;5063897;28;20635;-49
2021/03/15 08:02:22;;;;;;;12.98;11.73;;;37.60;61.10;;;;;;5062547;28;20738;-48
2021/03/15 08:04:52;;;;;;;15.63;12.50;;;37.60;60.00;;;;;;5054155;28;20202;-49
2021/03/15 08:07:24;;;;;;;13.23;12.10;;;37.60;59.60;;;;;;5064607;28;20202;-51
2021/03/15 08:09:56;;;;;;;13.23;12.02;;;37.60;59.30;;;;;;5064758;28;20204;-49
2021/03/15 08:12:31;;;;;;;13.80;12.50;;;37.50;59.40;;;;;;5049942;28;20309;-49
2021/03/15 08:15:03;;;;;;;14.73;13.15;;;37.50;59.10;;;;;;5050964;28;20211;-53
2021/03/15 08:17:34;;;;;;;14.10;12.95;;;37.50;59.00;;;;;;5051098;28;20218;-52
2021/03/15 08:20:06;;;;;;;13.27;11.98;;;37.50;58.90;;;;;;5051122;28;20665;-53
2021/03/15 08:22:40;;;;;;;14.75;13.38;;;37.50;59.60;;;;;;5057486;28;20198;-50
2021/03/15 08:25:10;;;;;;;15.20;13.70;;;37.50;59.60;;;;;;5064515;28;20284;-49
2021/03/15 08:27:42;;;;;;;13.63;12.18;;;37.40;59.80;;;;;;5063957;28;20193;-51
2021/03/15 08:30:18;;;;;;;12.60;11.43;;;37.50;59.80;;;;;;5065023;28;20335;-50
2021/03/15 08:32:49;;;;;;;13.10;11.77;;;37.40;59.80;;;;;;5050584;28;20208;-53
2021/03/15 08:35:20;;;;;;;12.30;11.10;;;37.40;60.00;;;;;;5050075;28;20220;-50
2021/03/15 08:37:52;;;;;;;12.43;11.10;;;37.50;59.90;;;;;;5050063;28;20310;-52
2021/03/15 08:40:50;;;;;;;11.93;10.82;;;37.50;59.90;;;;;;5062304;28;20197;-48
2021/03/15 08:43:41;;;;;;;11.82;10.73;;;37.50;59.80;;;;;;5061699;28;20201;-50
2021/03/15 08:46:18;;;;;;;11.38;10.27;;;37.50;60.00;;;;;;5063211;28;20330;-49
2021/03/15 08:48:59;;;;;;;11.63;10.48;;;37.50;59.90;;;;;;5059716;28;20566;-49
2021/03/15 08:51:47;;;;;;;11.73;10.52;;;37.50;59.90;;;;;;5061109;28;20990;-49
2021/03/15 08:54:48;;;;;;;11.98;10.20;;;37.50;60.00;;;;;;5064105;28;20254;-48
2021/03/15 08:57:32;;;;;;;11.32;10.32;;;37.50;59.90;;;;;;5063678;28;20221;-52
2021/03/15 09:00:28;;;;;;;11.93;10.63;;;37.60;59.80;;;;;;5065077;28;20287;-50
2021/03/15 09:03:00;;;;;;;11.18;10.00;;;37.60;59.50;;;;;;5026723;28;20406;-55
2021/03/15 09:05:31;;;;;;;11.45;10.45;;;37.50;59.00;;;;;;5026675;28;20309;-51
2021/03/15 09:08:02;;;;;;;10.95;9.95;;;37.50;59.30;;;;;;5026565;28;20203;-51
2021/03/15 09:10:40;;;;;;;11.05;9.95;;;37.50;59.60;;;;;;5026253;28;20199;-48
2021/03/15 09:13:29;;;;;;;11.48;10.38;;;37.40;59.80;;;;;;5042250;28;20214;-52
2021/03/15 09:16:01;;;;;;;10.80;9.73;;;37.40;60.00;;;;;;5026649;28;20219;-48
2021/03/15 09:18:53;;;;;;;11.52;10.45;;;37.40;60.00;;;;;;5027013;28;20233;-51
2021/03/15 09:21:51;;;;;;;11.35;10.25;;;37.30;59.70;;;;;;5026598;28;20206;-49
2021/03/15 09:24:42;;;;;;;13.13;11.52;;;37.30;59.80;;;;;;5025858;28;20202;-49
2021/03/15 09:27:12;;;;;;;15.20;13.55;;;37.30;59.40;;;;;;5030057;28;20214;-50
2021/03/15 09:29:43;;;;;;;12.15;11.07;;;37.30;59.30;;;;;;5030075;28;20211;-52
2021/03/15 09:32:13;;;;;;;12.25;11.00;;;37.20;59.80;;;;;;5030718;28;20198;-52
2021/03/15 09:34:48;;;;;;;11.90;10.65;;;37.20;60.00;;;;;;5043667;28;20212;-52
2021/03/15 09:37:19;;;;;;;12.85;9.85;;;37.20;59.80;;;;;;5042000;28;20766;-48
2021/03/15 09:39:49;;;;;;;11.23;10.18;;;37.20;60.00;;;;;;5035354;28;20202;-51
2021/03/15 09:42:20;;;;;;;11.23;10.20;;;37.10;60.00;;;;;;5066663;28;20213;-52
2021/03/15 09:44:51;;;;;;;11.02;9.93;;;37.10;60.10;;;;;;5069137;28;20200;-48
2021/03/15 09:47:26;;;;;;;10.63;9.60;;;37.10;59.90;;;;;;5052974;28;20313;-48
2021/03/15 09:49:58;;;;;;;10.27;9.30;;;37.10;60.00;;;;;;5065769;28;20598;-50
2021/03/15 09:52:28;;;;;;;10.32;9.15;;;37.10;60.30;;;;;;5066649;28;20240;-49
2021/03/15 09:54:59;;;;;;;11.65;10.30;;;37.00;60.20;;;;;;5064432;28;20251;-53
2021/03/15 09:57:30;;;;;;;10.73;9.65;;;37.00;60.10;;;;;;5067728;28;20212;-54
2021/03/15 10:00:10;;;;;;;11.10;10.00;;;37.00;60.20;;;;;;5066979;28;20322;-50
2021/03/15 10:02:41;;;;;;;12.52;10.45;;;37.00;60.50;;;;;;5054952;28;20256;-52
2021/03/15 10:05:18;;;;;;;12.73;11.05;;;36.90;60.40;;;;;;5064186;28;20224;-49
2021/03/15 10:07:49;;;;;;;13.63;10.93;;;36.80;60.10;;;;;;5052624;28;20886;-53
2021/03/15 10:10:21;;;;;;;11.75;10.63;;;36.80;60.30;;;;;;5065123;28;20205;-49
2021/03/15 10:12:51;;;;;;;12.25;10.73;;;36.70;60.50;;;;;;5052836;28;20289;-50
2021/03/15 10:15:22;;;;;;;11.15;10.10;;;36.70;60.90;;;;;;5052668;28;20671;-49
2021/03/15 10:17:53;;;;;;;11.73;10.15;;;36.60;61.00;;;;;;5052259;28;20636;-51
2021/03/15 10:20:37;;;;;;;11.30;10.07;;;36.50;61.00;;;;;;5056046;28;20681;-50
2021/03/15 10:23:12;;;;;;;10.93;9.82;;;36.40;61.40;;;;;;5053285;28;20274;-51
2021/03/15 10:25:54;;;;;;;11.23;9.98;;;36.30;61.60;;;;;;5062810;28;20208;-52
2021/03/15 10:28:25;;;;;;;11.55;10.45;;;36.20;61.50;;;;;;5065498;28;20610;-48
2021/03/15 10:31:14;;;;;;;11.15;10.05;;;36.10;61.60;;;;;;5066852;28;20618;-50
2021/03/15 10:33:46;;;;;;;11.18;10.05;;;36.00;61.90;;;;;;5052561;28;20658;-49
2021/03/15 10:36:19;;;;;;;11.25;10.18;;;35.90;61.90;;;;;;5052322;28;20560;-50
2021/03/15 10:38:50;;;;;;;10.63;9.40;;;35.80;62.30;;;;;;5063448;28;20578;-49
2021/03/15 10:41:21;;;;;;;10.65;9.60;;;35.70;62.50;;;;;;5060903;28;20202;-51
2021/03/15 10:43:52;;;;;;;11.48;10.32;;;35.60;62.80;;;;;;5052921;28;20204;-48
2021/03/15 10:46:24;;;;;;;11.18;9.60;;;35.50;63.20;;;;;;5051875;28;20703;-48
2021/03/15 10:48:55;;;;;;;10.00;9.00;;;35.40;63.60;;;;;;5052353;28;20202;-52
2021/03/15 10:51:27;;;;;;;11.00;9.75;;;35.30;63.90;;;;;;5059395;28;20233;-51
2021/03/15 10:54:12;;;;;;;11.18;9.48;;;35.20;64.10;;;;;;5066692;28;20202;-50
2021/03/15 10:57:12;;;;;;;10.63;9.68;;;35.20;64.10;;;;;;5066325;28;20224;-49
2021/03/15 10:59:43;;;;;;;10.50;9.32;;;35.10;64.20;;;;;;5063996;28;20237;-50
2021/03/15 11:02:21;;;;;;;10.18;9.18;;;35.10;64.20;;;;;;5058968;28;20201;-50
2021/03/15 11:04:56;;;;;;;9.50;8.68;;;35.00;64.30;;;;;;5066613;28;20262;-51
2021/03/15 11:07:29;;;;;;;11.15;9.73;;;35.00;64.60;;;;;;5064585;28;20662;-51
2021/03/15 11:10:08;;;;;;;10.65;9.55;;;34.90;64.80;;;;;;5066590;28;20201;-49
2021/03/15 11:12:43;;;;;;;9.88;8.95;;;34.80;65.00;;;;;;5065894;28;20220;-50
2021/03/15 11:15:18;;;;;;;10.48;9.38;;;34.80;65.20;;;;;;5066143;28;20278;-49
2021/03/15 11:18:06;;;;;;;9.68;8.82;;;34.70;65.40;;;;;;5051909;28;20213;-51
2021/03/15 11:20:44;;;;;;;10.38;9.25;;;34.60;65.80;;;;;;5064074;28;20280;-52
2021/03/15 11:23:27;;;;;;;9.75;8.75;;;34.50;66.30;;;;;;5066746;28;20227;-50
2021/03/15 11:26:05;;;;;;;11.02;9.20;;;34.50;66.60;;;;;;5051728;28;20202;-49
2021/03/15 11:28:37;;;;;;;10.18;9.05;;;34.40;67.10;;;;;;5051204;28;20198;-52
2021/03/15 11:31:07;;;;;;;10.25;9.10;;;34.30;67.10;;;;;;5065662;28;20324;-50
2021/03/15 11:33:38;;;;;;;10.05;8.90;;;34.20;67.50;;;;;;5065720;28;20225;-49
2021/03/15 11:36:15;;;;;;;11.32;10.13;;;34.10;67.90;;;;;;5022979;28;20202;-53
2021/03/15 11:38:51;;;;;;;11.65;10.43;;;34.10;68.60;;;;;;5023450;28;20267;-50
2021/03/15 11:41:22;;;;;;;11.77;9.80;;;34.00;68.90;;;;;;5021509;28;20230;-49
2021/03/15 11:43:52;;;;;;;13.30;11.88;;;33.90;68.80;;;;;;5018695;28;20735;-50
2021/03/15 11:46:22;;;;;;;13.70;12.38;;;33.80;69.10;;;;;;5019352;28;20203;-49
2021/03/15 11:48:53;;;;;;;14.35;12.52;;;33.80;69.30;;;;;;5022212;28;20206;-50
2021/03/15 11:51:24;;;;;;;13.25;11.80;;;33.80;69.60;;;;;;5020400;28;20239;-50
2021/03/15 11:53:55;;;;;;;13.48;11.90;;;33.70;69.60;;;;;;5023189;28;20610;-49
2021/03/15 11:56:26;;;;;;;12.80;10.40;;;33.60;69.80;;;;;;5010276;28;20239;-50
2021/03/15 11:58:56;;;;;;;11.77;10.55;;;33.60;70.10;;;;;;5012981;28;20206;-49
2021/03/15 12:01:27;;;;;;;13.23;11.18;;;33.50;70.20;;;;;;5042325;28;20238;-52
2021/03/15 12:03:58;;;;;;;14.38;11.45;;;33.40;70.50;;;;;;5055268;28;20206;-52
2021/03/15 12:06:29;;;;;;;14.15;11.90;;;33.40;70.70;;;;;;5057630;28;20189;-51
2021/03/15 12:09:00;;;;;;;15.18;11.77;;;33.30;70.90;;;;;;5064494;28;20197;-53
2021/03/15 12:11:30;;;;;;;13.02;11.48;;;33.30;71.20;;;;;;5065169;28;20863;-52
2021/03/15 12:14:01;;;;;;;14.00;12.13;;;33.30;71.50;;;;;;5064464;28;20646;-53
2021/03/15 12:16:32;;;;;;;14.45;11.82;;;33.20;71.50;;;;;;5064908;28;20599;-51
2021/03/15 12:19:03;;;;;;;13.35;11.05;;;33.20;71.70;;;;;;5057281;28;20204;-49
2021/03/15 12:21:39;;;;;;;12.32;10.95;;;33.10;71.80;;;;;;5061974;28;20196;-50
2021/03/15 12:24:12;;;;;;;14.13;11.52;;;33.10;71.90;;;;;;5058195;28;20604;-52
2021/03/15 12:26:43;;;;;;;12.85;11.23;;;33.10;72.30;;;;;;5049844;28;20201;-50
2021/03/15 12:29:14;;;;;;;13.35;11.45;;;33.10;72.40;;;;;;5052534;28;20222;-54
2021/03/15 12:31:45;;;;;;;13.73;10.77;;;33.00;72.50;;;;;;5053136;28;20247;-52
2021/03/15 12:34:15;;;;;;;12.13;10.10;;;32.90;72.60;;;;;;5049418;28;20621;-51
2021/03/15 12:36:47;;;;;;;11.95;10.75;;;32.90;72.70;;;;;;5052785;28;20214;-53
2021/03/15 12:39:19;;;;;;;11.88;10.65;;;32.90;73.00;;;;;;5063452;28;20197;-55
2021/03/15 12:41:49;;;;;;;11.98;9.98;;;32.80;73.20;;;;;;5064617;28;20256;-50
2021/03/15 12:44:20;;;;;;;10.85;9.73;;;32.80;73.30;;;;;;5064264;28;20229;-51
2021/03/15 12:46:50;;;;;;;11.75;10.23;;;32.80;73.50;;;;;;5064146;28;20194;-54
2021/03/15 12:49:20;;;;;;;10.93;9.82;;;32.70;73.70;;;;;;5065088;28;20284;-51
2021/03/15 12:51:51;;;;;;;13.13;10.65;;;32.70;73.90;;;;;;5062311;28;20578;-49
2021/03/15 12:54:23;;;;;;;12.85;11.15;;;32.60;74.10;;;;;;5061526;28;20713;-52
2021/03/15 12:56:54;;;;;;;11.13;10.00;;;32.60;74.40;;;;;;5062162;28;20246;-50
2021/03/15 12:59:24;;;;;;;12.13;10.68;;;32.60;74.50;;;;;;5063915;28;20565;-51
2021/03/15 13:01:55;;;;;;;12.40;10.65;;;32.60;74.70;;;;;;5064702;28;20216;-52
2021/03/15 13:04:25;;;;;;;10.65;9.48;;;32.50;74.80;;;;;;5050285;28;20225;-53